sensor_id;sensor_type;location;lat;lon;timestamp;temperature;humidity
44863;DHT22;30597;49.628;10.850;2023-07-29T00:01:15;24.30;56.70
44863;DHT22;30597;49.628;10.850;2023-07-29T00:03:41;24.20;56.40
44863;DHT22;30597;49.628;10.850;2023-07-29T00:06:06;24.30;56.60
44863;DHT22;30597;49.628;10.850;2023-07-29T00:08:32;24.10;56.70
44863;DHT22;30597;49.628;10.850;2023-07-29T00:10:57;24.10;56.70
44863;DHT22;30597;49.628;10.850;2023-07-29T00:13:23;24.10;56.80
44863;DHT22;30597;49.628;10.850;2023-07-29T00:15:49;24.20;56.90
44863;DHT22;30597;49.628;10.850;2023-07-29T00:18:14;24.10;56.80
44863;DHT22;30597;49.628;10.850;2023-07-29T00:20:40;24.00;56.80
44863;DHT22;30597;49.628;10.850;2023-07-29T00:23:05;24.00;56.50
44863;DHT22;30597;49.628;10.850;2023-07-29T00:25:31;24.00;56.70
44863;DHT22;30597;49.628;10.850;2023-07-29T00:27:56;24.00;56.80
44863;DHT22;30597;49.628;10.850;2023-07-29T00:30:22;24.00;56.60
44863;DHT22;30597;49.628;10.850;2023-07-29T00:32:48;24.10;56.80
44863;DHT22;30597;49.628;10.850;2023-07-29T00:35:13;24.10;56.80
44863;DHT22;30597;49.628;10.850;2023-07-29T00:37:39;24.00;56.70
44863;DHT22;30597;49.628;10.850;2023-07-29T00:40:15;24.10;56.80
44863;DHT22;30597;49.628;10.850;2023-07-29T00:42:41;23.90;56.80
44863;DHT22;30597;49.628;10.850;2023-07-29T00:45:09;23.90;56.70
44863;DHT22;30597;49.628;10.850;2023-07-29T00:47:34;23.90;56.90
44863;DHT22;30597;49.628;10.850;2023-07-29T00:50:00;23.90;56.90
44863;DHT22;30597;49.628;10.850;2023-07-29T00:52:26;23.90;57.00
44863;DHT22;30597;49.628;10.850;2023-07-29T00:54:52;23.90;56.80
44863;DHT22;30597;49.628;10.850;2023-07-29T00:57:17;23.80;56.70
44863;DHT22;30597;49.628;10.850;2023-07-29T00:59:44;24.00;57.10
44863;DHT22;30597;49.628;10.850;2023-07-29T01:02:10;23.80;56.90
44863;DHT22;30597;49.628;10.850;2023-07-29T01:04:35;23.80;56.90
44863;DHT22;30597;49.628;10.850;2023-07-29T01:07:23;23.90;57.00
44863;DHT22;30597;49.628;10.850;2023-07-29T01:09:53;23.70;57.10
44863;DHT22;30597;49.628;10.850;2023-07-29T01:15:24;23.80;57.50
44863;DHT22;30597;49.628;10.850;2023-07-29T01:17:55;23.80;57.50
44863;DHT22;30597;49.628;10.850;2023-07-29T01:20:24;23.80;57.70
44863;DHT22;30597;49.628;10.850;2023-07-29T01:22:50;23.70;57.60
44863;DHT22;30597;49.628;10.850;2023-07-29T01:25:16;23.70;57.50
44863;DHT22;30597;49.628;10.850;2023-07-29T01:27:47;23.80;57.60
44863;DHT22;30597;49.628;10.850;2023-07-29T01:30:12;23.70;57.60
44863;DHT22;30597;49.628;10.850;2023-07-29T01:38:09;23.60;57.80
44863;DHT22;30597;49.628;10.850;2023-07-29T01:40:39;23.70;57.80
44863;DHT22;30597;49.628;10.850;2023-07-29T01:43:05;23.70;57.80
44863;DHT22;30597;49.628;10.850;2023-07-29T01:45:32;23.60;57.70
44863;DHT22;30597;49.628;10.850;2023-07-29T01:48:01;23.60;57.90
44863;DHT22;30597;49.628;10.850;2023-07-29T01:50:27;23.60;57.80
44863;DHT22;30597;49.628;10.850;2023-07-29T01:52:52;23.70;58.00
44863;DHT22;30597;49.628;10.850;2023-07-29T01:55:18;23.70;58.00
44863;DHT22;30597;49.628;10.850;2023-07-29T01:57:43;23.70;58.00
44863;DHT22;30597;49.628;10.850;2023-07-29T02:00:10;23.60;57.90
44863;DHT22;30597;49.628;10.850;2023-07-29T02:02:36;23.60;57.80
44863;DHT22;30597;49.628;10.850;2023-07-29T02:05:01;23.70;58.10
44863;DHT22;30597;49.628;10.850;2023-07-29T02:07:27;23.60;57.90
44863;DHT22;30597;49.628;10.850;2023-07-29T02:09:52;23.60;58.00
44863;DHT22;30597;49.628;10.850;2023-07-29T02:12:18;23.50;58.00
44863;DHT22;30597;49.628;10.850;2023-07-29T02:14:44;23.60;58.30
44863;DHT22;30597;49.628;10.850;2023-07-29T02:17:09;23.70;58.20
44863;DHT22;30597;49.628;10.850;2023-07-29T02:19:35;23.70;58.30
44863;DHT22;30597;49.628;10.850;2023-07-29T02:22:01;23.60;58.00
44863;DHT22;30597;49.628;10.850;2023-07-29T02:24:26;23.60;58.20
44863;DHT22;30597;49.628;10.850;2023-07-29T02:26:52;23.70;58.10
44863;DHT22;30597;49.628;10.850;2023-07-29T02:29:17;23.50;58.00
44863;DHT22;30597;49.628;10.850;2023-07-29T02:31:43;23.60;58.20
44863;DHT22;30597;49.628;10.850;2023-07-29T02:34:09;23.50;58.80
44863;DHT22;30597;49.628;10.850;2023-07-29T02:36:35;23.50;58.30
44863;DHT22;30597;49.628;10.850;2023-07-29T02:39:00;23.50;58.30
44863;DHT22;30597;49.628;10.850;2023-07-29T02:41:26;23.50;58.30
44863;DHT22;30597;49.628;10.850;2023-07-29T02:43:51;23.50;58.40
44863;DHT22;30597;49.628;10.850;2023-07-29T02:46:17;23.50;58.30
44863;DHT22;30597;49.628;10.850;2023-07-29T02:48:44;23.40;58.20
44863;DHT22;30597;49.628;10.850;2023-07-29T02:51:10;23.40;58.30
44863;DHT22;30597;49.628;10.850;2023-07-29T02:53:35;23.60;58.40
44863;DHT22;30597;49.628;10.850;2023-07-29T02:56:04;23.40;58.90
44863;DHT22;30597;49.628;10.850;2023-07-29T02:58:31;23.50;59.20
44863;DHT22;30597;49.628;10.850;2023-07-29T03:01:04;23.60;58.60
44863;DHT22;30597;49.628;10.850;2023-07-29T03:03:31;23.40;58.60
44863;DHT22;30597;49.628;10.850;2023-07-29T03:06:04;23.40;58.50
44863;DHT22;30597;49.628;10.850;2023-07-29T03:08:30;23.40;58.60
44863;DHT22;30597;49.628;10.850;2023-07-29T03:10:56;23.40;58.40
44863;DHT22;30597;49.628;10.850;2023-07-29T03:13:22;23.50;58.60
44863;DHT22;30597;49.628;10.850;2023-07-29T03:15:47;23.40;58.70
44863;DHT22;30597;49.628;10.850;2023-07-29T03:18:13;23.30;58.60
44863;DHT22;30597;49.628;10.850;2023-07-29T03:20:38;23.40;58.60
44863;DHT22;30597;49.628;10.850;2023-07-29T03:23:04;23.40;58.50
44863;DHT22;30597;49.628;10.850;2023-07-29T03:25:29;23.30;58.50
44863;DHT22;30597;49.628;10.850;2023-07-29T03:27:55;23.40;58.70
44863;DHT22;30597;49.628;10.850;2023-07-29T03:30:21;23.50;58.80
44863;DHT22;30597;49.628;10.850;2023-07-29T03:32:48;23.40;58.80
44863;DHT22;30597;49.628;10.850;2023-07-29T03:35:14;23.40;58.90
44863;DHT22;30597;49.628;10.850;2023-07-29T03:37:40;23.30;58.70
44863;DHT22;30597;49.628;10.850;2023-07-29T03:40:06;23.30;58.80
44863;DHT22;30597;49.628;10.850;2023-07-29T03:42:32;23.30;58.90
44863;DHT22;30597;49.628;10.850;2023-07-29T03:44:58;23.40;58.80
44863;DHT22;30597;49.628;10.850;2023-07-29T03:47:23;23.40;58.90
44863;DHT22;30597;49.628;10.850;2023-07-29T03:49:49;23.30;58.80
44863;DHT22;30597;49.628;10.850;2023-07-29T03:52:15;23.30;58.80
44863;DHT22;30597;49.628;10.850;2023-07-29T03:54:40;23.30;58.60
44863;DHT22;30597;49.628;10.850;2023-07-29T03:57:06;23.30;58.60
44863;DHT22;30597;49.628;10.850;2023-07-29T03:59:32;23.30;58.70
44863;DHT22;30597;49.628;10.850;2023-07-29T04:01:58;23.30;58.80
44863;DHT22;30597;49.628;10.850;2023-07-29T04:04:23;23.40;58.80
44863;DHT22;30597;49.628;10.850;2023-07-29T04:06:49;23.30;58.70
44863;DHT22;30597;49.628;10.850;2023-07-29T04:09:14;23.30;58.80
44863;DHT22;30597;49.628;10.850;2023-07-29T04:11:40;23.20;58.80
44863;DHT22;30597;49.628;10.850;2023-07-29T04:14:05;23.20;58.70
44863;DHT22;30597;49.628;10.850;2023-07-29T04:16:31;23.30;58.70
44863;DHT22;30597;49.628;10.850;2023-07-29T04:18:56;23.20;58.60
44863;DHT22;30597;49.628;10.850;2023-07-29T04:21:22;23.30;58.80
44863;DHT22;30597;49.628;10.850;2023-07-29T04:23:48;23.30;58.80
44863;DHT22;30597;49.628;10.850;2023-07-29T04:26:13;23.40;58.60
44863;DHT22;30597;49.628;10.850;2023-07-29T04:28:39;23.30;58.60
44863;DHT22;30597;49.628;10.850;2023-07-29T04:31:04;23.30;58.60
44863;DHT22;30597;49.628;10.850;2023-07-29T04:33:30;23.30;58.80
44863;DHT22;30597;49.628;10.850;2023-07-29T04:35:56;23.30;58.80
44863;DHT22;30597;49.628;10.850;2023-07-29T04:38:24;23.30;58.60
44863;DHT22;30597;49.628;10.850;2023-07-29T04:40:50;23.30;58.80
44863;DHT22;30597;49.628;10.850;2023-07-29T04:43:15;23.40;58.80
44863;DHT22;30597;49.628;10.850;2023-07-29T04:45:44;23.30;58.80
44863;DHT22;30597;49.628;10.850;2023-07-29T04:48:10;23.30;58.80
44863;DHT22;30597;49.628;10.850;2023-07-29T04:50:36;23.40;58.90
44863;DHT22;30597;49.628;10.850;2023-07-29T04:53:01;23.30;58.70
44863;DHT22;30597;49.628;10.850;2023-07-29T04:55:27;23.40;58.80
44863;DHT22;30597;49.628;10.850;2023-07-29T04:57:52;23.30;58.70
44863;DHT22;30597;49.628;10.850;2023-07-29T05:00:18;23.40;58.80
44863;DHT22;30597;49.628;10.850;2023-07-29T05:02:44;23.20;58.60
44863;DHT22;30597;49.628;10.850;2023-07-29T05:05:09;23.30;58.70
44863;DHT22;30597;49.628;10.850;2023-07-29T05:07:35;23.30;58.70
44863;DHT22;30597;49.628;10.850;2023-07-29T05:10:00;23.30;58.70
44863;DHT22;30597;49.628;10.850;2023-07-29T05:12:26;23.30;58.50
44863;DHT22;30597;49.628;10.850;2023-07-29T05:14:51;23.40;58.70
44863;DHT22;30597;49.628;10.850;2023-07-29T05:17:17;23.30;58.80
44863;DHT22;30597;49.628;10.850;2023-07-29T05:19:42;23.20;58.70
44863;DHT22;30597;49.628;10.850;2023-07-29T05:22:09;23.30;58.80
44863;DHT22;30597;49.628;10.850;2023-07-29T05:24:35;23.40;59.00
44863;DHT22;30597;49.628;10.850;2023-07-29T05:27:01;23.30;58.80
44863;DHT22;30597;49.628;10.850;2023-07-29T05:29:26;23.40;58.80
44863;DHT22;30597;49.628;10.850;2023-07-29T05:31:52;23.30;58.80
44863;DHT22;30597;49.628;10.850;2023-07-29T05:34:17;23.40;58.90
44863;DHT22;30597;49.628;10.850;2023-07-29T05:36:43;23.30;58.70
44863;DHT22;30597;49.628;10.850;2023-07-29T05:39:08;23.30;58.60
44863;DHT22;30597;49.628;10.850;2023-07-29T05:41:34;23.30;58.80
44863;DHT22;30597;49.628;10.850;2023-07-29T05:44:00;23.30;59.20
44863;DHT22;30597;49.628;10.850;2023-07-29T05:46:25;23.30;59.10
44863;DHT22;30597;49.628;10.850;2023-07-29T05:48:51;23.30;58.90
44863;DHT22;30597;49.628;10.850;2023-07-29T05:51:17;23.40;59.20
44863;DHT22;30597;49.628;10.850;2023-07-29T05:53:42;23.50;59.20
44863;DHT22;30597;49.628;10.850;2023-07-29T05:56:08;23.40;59.20
44863;DHT22;30597;49.628;10.850;2023-07-29T05:58:35;23.60;59.30
44863;DHT22;30597;49.628;10.850;2023-07-29T06:01:01;23.50;59.10
44863;DHT22;30597;49.628;10.850;2023-07-29T06:03:26;23.40;58.80
44863;DHT22;30597;49.628;10.850;2023-07-29T06:05:52;23.50;58.90
44863;DHT22;30597;49.628;10.850;2023-07-29T06:08:18;23.50;59.00
44863;DHT22;30597;49.628;10.850;2023-07-29T06:10:43;23.50;58.90
44863;DHT22;30597;49.628;10.850;2023-07-29T06:13:09;23.50;59.00
44863;DHT22;30597;49.628;10.850;2023-07-29T06:15:34;23.50;58.90
44863;DHT22;30597;49.628;10.850;2023-07-29T06:18:00;23.50;58.90
44863;DHT22;30597;49.628;10.850;2023-07-29T06:20:25;23.50;58.80
44863;DHT22;30597;49.628;10.850;2023-07-29T06:22:51;23.50;58.70
44863;DHT22;30597;49.628;10.850;2023-07-29T06:25:17;23.60;58.90
44863;DHT22;30597;49.628;10.850;2023-07-29T06:27:43;23.60;58.70
44863;DHT22;30597;49.628;10.850;2023-07-29T06:30:08;23.60;58.80
44863;DHT22;30597;49.628;10.850;2023-07-29T06:32:34;23.70;58.80
44863;DHT22;30597;49.628;10.850;2023-07-29T06:35:00;23.60;58.60
44863;DHT22;30597;49.628;10.850;2023-07-29T06:37:25;23.70;58.70
44863;DHT22;30597;49.628;10.850;2023-07-29T06:39:51;23.70;58.60
44863;DHT22;30597;49.628;10.850;2023-07-29T06:42:16;23.80;58.70
44863;DHT22;30597;49.628;10.850;2023-07-29T06:44:42;23.80;58.60
44863;DHT22;30597;49.628;10.850;2023-07-29T06:47:07;23.80;58.60
44863;DHT22;30597;49.628;10.850;2023-07-29T06:49:33;23.90;59.30
44863;DHT22;30597;49.628;10.850;2023-07-29T06:51:58;23.80;58.50
44863;DHT22;30597;49.628;10.850;2023-07-29T06:54:25;23.80;58.30
44863;DHT22;30597;49.628;10.850;2023-07-29T06:56:53;23.90;58.40
44863;DHT22;30597;49.628;10.850;2023-07-29T06:59:19;23.90;58.50
44863;DHT22;30597;49.628;10.850;2023-07-29T07:01:44;23.90;58.40
44863;DHT22;30597;49.628;10.850;2023-07-29T07:04:10;23.90;58.40
44863;DHT22;30597;49.628;10.850;2023-07-29T07:06:35;23.90;58.20
44863;DHT22;30597;49.628;10.850;2023-07-29T07:09:01;24.00;58.40
44863;DHT22;30597;49.628;10.850;2023-07-29T07:11:26;24.00;58.30
44863;DHT22;30597;49.628;10.850;2023-07-29T07:13:52;24.10;58.10
44863;DHT22;30597;49.628;10.850;2023-07-29T07:16:18;24.00;58.20
44863;DHT22;30597;49.628;10.850;2023-07-29T07:18:43;24.00;58.30
44863;DHT22;30597;49.628;10.850;2023-07-29T07:21:09;24.00;58.20
44863;DHT22;30597;49.628;10.850;2023-07-29T07:23:34;24.00;58.20
44863;DHT22;30597;49.628;10.850;2023-07-29T07:26:00;24.00;58.10
44863;DHT22;30597;49.628;10.850;2023-07-29T07:28:25;24.10;58.10
44863;DHT22;30597;49.628;10.850;2023-07-29T07:30:51;24.00;58.10
44863;DHT22;30597;49.628;10.850;2023-07-29T07:33:17;24.10;58.80
44863;DHT22;30597;49.628;10.850;2023-07-29T07:35:42;24.10;58.10
44863;DHT22;30597;49.628;10.850;2023-07-29T07:38:08;24.10;58.10
44863;DHT22;30597;49.628;10.850;2023-07-29T07:40:35;24.10;58.00
44863;DHT22;30597;49.628;10.850;2023-07-29T07:43:01;24.00;58.00
44863;DHT22;30597;49.628;10.850;2023-07-29T07:45:27;24.10;57.90
44863;DHT22;30597;49.628;10.850;2023-07-29T07:47:53;24.10;57.90
44863;DHT22;30597;49.628;10.850;2023-07-29T07:50:19;24.00;57.90
44863;DHT22;30597;49.628;10.850;2023-07-29T07:52:44;24.00;57.80
44863;DHT22;30597;49.628;10.850;2023-07-29T07:55:10;24.10;57.90
44863;DHT22;30597;49.628;10.850;2023-07-29T07:57:36;24.00;57.80
44863;DHT22;30597;49.628;10.850;2023-07-29T08:00:01;24.00;58.70
44863;DHT22;30597;49.628;10.850;2023-07-29T08:02:27;24.00;58.80
44863;DHT22;30597;49.628;10.850;2023-07-29T08:04:53;24.00;58.00
44863;DHT22;30597;49.628;10.850;2023-07-29T08:07:19;24.10;58.10
44863;DHT22;30597;49.628;10.850;2023-07-29T08:09:45;24.10;58.10
44863;DHT22;30597;49.628;10.850;2023-07-29T08:12:10;24.20;57.80
44863;DHT22;30597;49.628;10.850;2023-07-29T08:14:36;24.10;57.70
44863;DHT22;30597;49.628;10.850;2023-07-29T08:17:01;24.20;57.60
44863;DHT22;30597;49.628;10.850;2023-07-29T08:19:28;24.10;57.50
44863;DHT22;30597;49.628;10.850;2023-07-29T08:21:53;24.20;57.50
44863;DHT22;30597;49.628;10.850;2023-07-29T08:24:19;24.20;57.60
44863;DHT22;30597;49.628;10.850;2023-07-29T08:26:45;24.20;57.40
44863;DHT22;30597;49.628;10.850;2023-07-29T08:29:11;24.10;57.30
44863;DHT22;30597;49.628;10.850;2023-07-29T08:31:37;24.10;57.20
44863;DHT22;30597;49.628;10.850;2023-07-29T08:34:03;24.30;57.30
44863;DHT22;30597;49.628;10.850;2023-07-29T08:36:28;24.20;57.20
44863;DHT22;30597;49.628;10.850;2023-07-29T08:38:54;24.10;57.10
44863;DHT22;30597;49.628;10.850;2023-07-29T08:41:28;24.10;56.90
44863;DHT22;30597;49.628;10.850;2023-07-29T08:44:16;24.10;57.10
44863;DHT22;30597;49.628;10.850;2023-07-29T08:46:44;24.20;57.10
44863;DHT22;30597;49.628;10.850;2023-07-29T08:49:12;24.10;56.90
44863;DHT22;30597;49.628;10.850;2023-07-29T08:51:39;24.10;57.00
44863;DHT22;30597;49.628;10.850;2023-07-29T08:54:07;24.10;57.00
44863;DHT22;30597;49.628;10.850;2023-07-29T08:56:33;24.20;56.90
44863;DHT22;30597;49.628;10.850;2023-07-29T08:58:59;24.20;56.90
44863;DHT22;30597;49.628;10.850;2023-07-29T09:01:27;24.20;56.80
44863;DHT22;30597;49.628;10.850;2023-07-29T09:03:53;24.20;56.80
44863;DHT22;30597;49.628;10.850;2023-07-29T09:06:19;24.20;56.50
44863;DHT22;30597;49.628;10.850;2023-07-29T09:08:47;24.30;56.80
44863;DHT22;30597;49.628;10.850;2023-07-29T09:11:14;24.20;56.50
44863;DHT22;30597;49.628;10.850;2023-07-29T09:13:42;24.40;56.60
44863;DHT22;30597;49.628;10.850;2023-07-29T09:16:09;24.20;56.40
44863;DHT22;30597;49.628;10.850;2023-07-29T09:18:35;24.20;56.40
44863;DHT22;30597;49.628;10.850;2023-07-29T09:21:00;24.30;56.30
44863;DHT22;30597;49.628;10.850;2023-07-29T09:23:26;24.20;56.40
44863;DHT22;30597;49.628;10.850;2023-07-29T09:26:01;24.30;56.30
44863;DHT22;30597;49.628;10.850;2023-07-29T09:28:33;24.30;56.30
44863;DHT22;30597;49.628;10.850;2023-07-29T09:30:59;24.30;56.20
44863;DHT22;30597;49.628;10.850;2023-07-29T09:33:28;24.30;56.10
44863;DHT22;30597;49.628;10.850;2023-07-29T09:35:54;24.30;56.20
44863;DHT22;30597;49.628;10.850;2023-07-29T09:38:26;24.30;56.00
44863;DHT22;30597;49.628;10.850;2023-07-29T09:40:55;24.30;56.10
44863;DHT22;30597;49.628;10.850;2023-07-29T09:43:25;24.40;56.10
44863;DHT22;30597;49.628;10.850;2023-07-29T09:45:51;24.40;56.10
44863;DHT22;30597;49.628;10.850;2023-07-29T09:48:22;24.30;55.90
44863;DHT22;30597;49.628;10.850;2023-07-29T09:50:47;24.30;56.00
44863;DHT22;30597;49.628;10.850;2023-07-29T09:53:14;24.40;55.90
44863;DHT22;30597;49.628;10.850;2023-07-29T09:55:40;24.30;55.80
44863;DHT22;30597;49.628;10.850;2023-07-29T09:58:11;24.30;55.80
44863;DHT22;30597;49.628;10.850;2023-07-29T10:00:37;24.30;55.70
44863;DHT22;30597;49.628;10.850;2023-07-29T10:03:04;24.30;55.70
44863;DHT22;30597;49.628;10.850;2023-07-29T10:05:30;24.30;55.70
44863;DHT22;30597;49.628;10.850;2023-07-29T10:07:56;24.30;55.90
44863;DHT22;30597;49.628;10.850;2023-07-29T10:10:22;24.30;56.00
44863;DHT22;30597;49.628;10.850;2023-07-29T10:12:48;24.30;56.10
44863;DHT22;30597;49.628;10.850;2023-07-29T10:15:15;24.30;56.30
44863;DHT22;30597;49.628;10.850;2023-07-29T10:17:41;24.30;56.00
44863;DHT22;30597;49.628;10.850;2023-07-29T10:20:09;24.30;56.00
44863;DHT22;30597;49.628;10.850;2023-07-29T10:22:41;24.30;56.10
44863;DHT22;30597;49.628;10.850;2023-07-29T10:25:30;24.30;56.00
44863;DHT22;30597;49.628;10.850;2023-07-29T10:28:01;24.30;55.90
44863;DHT22;30597;49.628;10.850;2023-07-29T10:30:29;24.30;56.00
44863;DHT22;30597;49.628;10.850;2023-07-29T10:32:58;24.30;55.90
44863;DHT22;30597;49.628;10.850;2023-07-29T10:35:24;24.30;56.10
44863;DHT22;30597;49.628;10.850;2023-07-29T10:37:51;24.30;56.00
44863;DHT22;30597;49.628;10.850;2023-07-29T10:40:18;24.40;56.10
44863;DHT22;30597;49.628;10.850;2023-07-29T10:43:11;24.30;55.90
44863;DHT22;30597;49.628;10.850;2023-07-29T10:45:38;24.30;56.10
44863;DHT22;30597;49.628;10.850;2023-07-29T10:48:12;24.30;56.10
44863;DHT22;30597;49.628;10.850;2023-07-29T10:50:38;24.30;56.10
44863;DHT22;30597;49.628;10.850;2023-07-29T10:53:04;24.30;56.00
44863;DHT22;30597;49.628;10.850;2023-07-29T10:55:35;24.40;56.20
44863;DHT22;30597;49.628;10.850;2023-07-29T10:58:12;24.20;56.00
44863;DHT22;30597;49.628;10.850;2023-07-29T11:00:41;24.20;56.10
44863;DHT22;30597;49.628;10.850;2023-07-29T11:03:07;24.20;56.10
44863;DHT22;30597;49.628;10.850;2023-07-29T11:05:48;24.30;56.30
44863;DHT22;30597;49.628;10.850;2023-07-29T11:08:21;24.30;56.50
44863;DHT22;30597;49.628;10.850;2023-07-29T11:13:31;24.30;56.50
44863;DHT22;30597;49.628;10.850;2023-07-29T11:15:58;24.30;56.60
44863;DHT22;30597;49.628;10.850;2023-07-29T11:18:33;24.30;56.50
44863;DHT22;30597;49.628;10.850;2023-07-29T11:21:00;24.30;56.50
44863;DHT22;30597;49.628;10.850;2023-07-29T11:23:36;24.40;56.50
44863;DHT22;30597;49.628;10.850;2023-07-29T11:26:03;24.50;56.50
44863;DHT22;30597;49.628;10.850;2023-07-29T11:28:30;24.40;56.40
44863;DHT22;30597;49.628;10.850;2023-07-29T11:30:56;24.50;56.70
44863;DHT22;30597;49.628;10.850;2023-07-29T11:33:26;24.40;56.90
44863;DHT22;30597;49.628;10.850;2023-07-29T11:35:54;24.40;57.10
44863;DHT22;30597;49.628;10.850;2023-07-29T11:38:21;24.40;57.00
44863;DHT22;30597;49.628;10.850;2023-07-29T11:41:00;24.50;57.10
44863;DHT22;30597;49.628;10.850;2023-07-29T11:43:26;24.40;56.90
44863;DHT22;30597;49.628;10.850;2023-07-29T11:45:52;24.50;56.90
44863;DHT22;30597;49.628;10.850;2023-07-29T11:48:26;24.40;56.80
44863;DHT22;30597;49.628;10.850;2023-07-29T11:50:53;24.50;57.00
44863;DHT22;30597;49.628;10.850;2023-07-29T11:53:19;24.40;56.60
44863;DHT22;30597;49.628;10.850;2023-07-29T11:55:44;24.50;56.80
44863;DHT22;30597;49.628;10.850;2023-07-29T11:58:10;24.40;56.60
44863;DHT22;30597;49.628;10.850;2023-07-29T12:00:35;24.50;56.60
44863;DHT22;30597;49.628;10.850;2023-07-29T12:03:03;24.50;56.50
44863;DHT22;30597;49.628;10.850;2023-07-29T12:05:29;24.40;56.30
44863;DHT22;30597;49.628;10.850;2023-07-29T12:07:55;24.50;56.50
44863;DHT22;30597;49.628;10.850;2023-07-29T12:10:21;24.40;56.20
44863;DHT22;30597;49.628;10.850;2023-07-29T12:12:48;24.40;56.10
44863;DHT22;30597;49.628;10.850;2023-07-29T12:15:26;24.40;56.20
44863;DHT22;30597;49.628;10.850;2023-07-29T12:17:58;24.50;56.40
44863;DHT22;30597;49.628;10.850;2023-07-29T12:20:25;24.30;56.30
44863;DHT22;30597;49.628;10.850;2023-07-29T12:22:56;24.30;56.70
44863;DHT22;30597;49.628;10.850;2023-07-29T12:25:22;24.30;56.90
44863;DHT22;30597;49.628;10.850;2023-07-29T12:27:48;24.40;56.80
44863;DHT22;30597;49.628;10.850;2023-07-29T12:30:14;24.30;56.70
44863;DHT22;30597;49.628;10.850;2023-07-29T12:32:44;24.30;56.70
44863;DHT22;30597;49.628;10.850;2023-07-29T12:35:10;24.30;56.70
44863;DHT22;30597;49.628;10.850;2023-07-29T12:37:35;24.30;56.60
44863;DHT22;30597;49.628;10.850;2023-07-29T12:40:02;24.40;56.60
44863;DHT22;30597;49.628;10.850;2023-07-29T12:42:27;24.30;56.50
44863;DHT22;30597;49.628;10.850;2023-07-29T12:44:53;24.30;56.60
44863;DHT22;30597;49.628;10.850;2023-07-29T12:47:18;24.30;56.50
44863;DHT22;30597;49.628;10.850;2023-07-29T12:49:44;24.40;56.60
44863;DHT22;30597;49.628;10.850;2023-07-29T12:52:09;24.40;56.50
44863;DHT22;30597;49.628;10.850;2023-07-29T12:54:35;24.30;56.30
44863;DHT22;30597;49.628;10.850;2023-07-29T12:57:00;24.30;56.20
44863;DHT22;30597;49.628;10.850;2023-07-29T12:59:26;24.50;56.30
44863;DHT22;30597;49.628;10.850;2023-07-29T13:01:51;24.40;56.10
44863;DHT22;30597;49.628;10.850;2023-07-29T13:04:17;24.30;56.10
44863;DHT22;30597;49.628;10.850;2023-07-29T13:06:42;24.30;56.00
44863;DHT22;30597;49.628;10.850;2023-07-29T13:09:08;24.30;56.10
44863;DHT22;30597;49.628;10.850;2023-07-29T13:11:34;24.30;56.00
44863;DHT22;30597;49.628;10.850;2023-07-29T13:13:59;24.30;56.10
44863;DHT22;30597;49.628;10.850;2023-07-29T13:16:26;24.30;55.90
44863;DHT22;30597;49.628;10.850;2023-07-29T13:18:52;24.30;55.90
44863;DHT22;30597;49.628;10.850;2023-07-29T13:21:17;24.50;56.00
44863;DHT22;30597;49.628;10.850;2023-07-29T13:23:43;24.30;55.80
44863;DHT22;30597;49.628;10.850;2023-07-29T13:26:08;24.40;56.00
44863;DHT22;30597;49.628;10.850;2023-07-29T13:28:34;24.50;56.10
44863;DHT22;30597;49.628;10.850;2023-07-29T13:31:00;24.30;55.80
44863;DHT22;30597;49.628;10.850;2023-07-29T13:33:25;24.30;56.00
44863;DHT22;30597;49.628;10.850;2023-07-29T13:35:51;24.40;55.90
44863;DHT22;30597;49.628;10.850;2023-07-29T13:38:17;24.30;55.90
44863;DHT22;30597;49.628;10.850;2023-07-29T13:40:42;24.30;55.90
44863;DHT22;30597;49.628;10.850;2023-07-29T13:43:08;24.30;55.80
44863;DHT22;30597;49.628;10.850;2023-07-29T13:45:34;24.40;55.90
44863;DHT22;30597;49.628;10.850;2023-07-29T13:48:00;24.40;55.90
44863;DHT22;30597;49.628;10.850;2023-07-29T13:50:25;24.30;55.80
44863;DHT22;30597;49.628;10.850;2023-07-29T13:52:51;24.50;55.70
44863;DHT22;30597;49.628;10.850;2023-07-29T13:55:17;24.50;55.80
44863;DHT22;30597;49.628;10.850;2023-07-29T13:57:42;24.50;55.70
44863;DHT22;30597;49.628;10.850;2023-07-29T14:00:08;24.50;55.70
44863;DHT22;30597;49.628;10.850;2023-07-29T14:02:33;24.40;55.50
44863;DHT22;30597;49.628;10.850;2023-07-29T14:04:59;24.40;55.40
44863;DHT22;30597;49.628;10.850;2023-07-29T14:07:25;24.40;55.50
44863;DHT22;30597;49.628;10.850;2023-07-29T14:09:50;24.40;55.40
44863;DHT22;30597;49.628;10.850;2023-07-29T14:12:16;24.50;55.30
44863;DHT22;30597;49.628;10.850;2023-07-29T14:14:42;24.60;55.40
44863;DHT22;30597;49.628;10.850;2023-07-29T14:17:07;24.50;55.50
44863;DHT22;30597;49.628;10.850;2023-07-29T14:19:37;24.50;55.90
44863;DHT22;30597;49.628;10.850;2023-07-29T14:22:02;24.50;56.30
44863;DHT22;30597;49.628;10.850;2023-07-29T14:24:28;24.50;56.40
44863;DHT22;30597;49.628;10.850;2023-07-29T14:26:53;24.50;56.50
44863;DHT22;30597;49.628;10.850;2023-07-29T14:29:19;24.50;56.50
44863;DHT22;30597;49.628;10.850;2023-07-29T14:31:45;24.60;56.40
44863;DHT22;30597;49.628;10.850;2023-07-29T14:34:10;24.60;56.60
44863;DHT22;30597;49.628;10.850;2023-07-29T14:36:36;24.60;56.70
44863;DHT22;30597;49.628;10.850;2023-07-29T14:39:02;24.50;57.00
44863;DHT22;30597;49.628;10.850;2023-07-29T14:41:28;24.50;56.80
44863;DHT22;30597;49.628;10.850;2023-07-29T14:43:53;24.40;56.90
44863;DHT22;30597;49.628;10.850;2023-07-29T14:46:19;24.60;57.00
44863;DHT22;30597;49.628;10.850;2023-07-29T14:48:44;24.50;56.90
44863;DHT22;30597;49.628;10.850;2023-07-29T14:51:12;24.50;56.70
44863;DHT22;30597;49.628;10.850;2023-07-29T14:53:38;24.50;56.50
44863;DHT22;30597;49.628;10.850;2023-07-29T14:56:03;24.50;56.40
44863;DHT22;30597;49.628;10.850;2023-07-29T14:58:29;24.50;57.00
44863;DHT22;30597;49.628;10.850;2023-07-29T15:00:55;24.60;56.50
44863;DHT22;30597;49.628;10.850;2023-07-29T15:03:21;24.50;56.30
44863;DHT22;30597;49.628;10.850;2023-07-29T15:05:46;24.50;56.10
44863;DHT22;30597;49.628;10.850;2023-07-29T15:08:12;24.50;56.20
44863;DHT22;30597;49.628;10.850;2023-07-29T15:10:37;24.50;56.10
44863;DHT22;30597;49.628;10.850;2023-07-29T15:13:03;24.50;56.00
44863;DHT22;30597;49.628;10.850;2023-07-29T15:15:29;24.70;56.10
44863;DHT22;30597;49.628;10.850;2023-07-29T15:17:54;24.50;56.00
44863;DHT22;30597;49.628;10.850;2023-07-29T15:20:20;24.60;56.10
44863;DHT22;30597;49.628;10.850;2023-07-29T15:22:45;24.50;56.20